createdAt,value
2019-02-26T00:00:14.711Z,6.81
2019-02-26T00:01:23.486Z,6.81
2019-02-26T00:02:30.489Z,6.76
2019-02-26T00:03:38.542Z,6.85
2019-02-26T00:04:49.091Z,6.85
2019-02-26T00:05:56.677Z,6.87
2019-02-26T00:07:02.685Z,6.88
2019-02-26T00:08:10.749Z,6.74
2019-02-26T00:09:22.294Z,6.80
2019-02-26T00:10:28.712Z,6.62
2019-02-26T00:11:36.113Z,6.71
2019-02-26T00:12:42.988Z,6.64
2019-02-26T00:13:52.346Z,6.66
2019-02-26T00:15:00.153Z,6.61
2019-02-26T00:16:07.939Z,6.62
2019-02-26T00:17:17.074Z,6.58
2019-02-26T00:18:23.574Z,6.52
2019-02-26T00:19:31.348Z,6.62
2019-02-26T00:20:40.936Z,6.61
2019-02-26T00:21:47.868Z,6.54
2019-02-26T00:22:57.090Z,6.49
2019-02-26T00:24:04.958Z,6.66
2019-02-26T00:25:12.766Z,6.69
2019-02-26T00:26:20.500Z,6.52
2019-02-26T00:27:28.580Z,6.61
2019-02-26T00:28:36.429Z,6.52
2019-02-26T00:29:44.246Z,6.48
2019-02-26T00:30:51.904Z,6.48
2019-02-26T00:31:59.964Z,6.44
2019-02-26T00:33:08.012Z,6.41
2019-02-26T00:34:18.480Z,6.41
2019-02-26T00:35:25.197Z,6.46
2019-02-26T00:36:33.623Z,6.40
2019-02-26T00:37:40.267Z,6.46
2019-02-26T00:38:48.319Z,6.48
2019-02-26T00:39:56.487Z,6.55
2019-02-26T00:41:06.060Z,6.66
2019-02-26T00:42:12.526Z,6.61
2019-02-26T00:43:21.488Z,6.64
2019-02-26T00:44:29.825Z,6.66
2019-02-26T00:45:38.888Z,6.85
2019-02-26T00:46:44.729Z,6.97
2019-02-26T00:47:52.785Z,6.98
2019-02-26T00:49:02.712Z,6.99
2019-02-26T00:50:09.539Z,6.97
2019-02-26T00:51:18.625Z,7.03
2019-02-26T00:52:25.035Z,6.98
2019-02-26T00:53:33.124Z,6.94
2019-02-26T00:54:41.141Z,7.07
2019-02-26T00:55:49.200Z,6.95
2019-02-26T00:56:59.392Z,6.95
2019-02-26T00:58:05.820Z,7.07
2019-02-26T00:59:13.365Z,6.95
2019-02-26T01:00:21.435Z,6.97
2019-02-26T01:01:29.474Z,6.87
2019-02-26T01:02:37.579Z,6.79
2019-02-26T01:03:47.045Z,6.79
2019-02-26T01:04:53.667Z,6.87
2019-02-26T01:06:03.272Z,6.70
2019-02-26T01:07:09.809Z,6.85
2019-02-26T01:08:19.314Z,6.88
2019-02-26T01:09:27.272Z,6.84
2019-02-26T01:10:34.553Z,6.87
2019-02-26T01:11:42.915Z,6.81
2019-02-26T01:12:50.068Z,6.81
2019-02-26T01:13:59.524Z,6.85
2019-02-26T01:15:07.132Z,6.79
2019-02-26T01:16:14.258Z,6.84
2019-02-26T01:17:22.304Z,6.80
2019-02-26T01:18:30.373Z,6.74
2019-02-26T01:19:38.987Z,6.64
2019-02-26T01:20:48.790Z,6.74
2019-02-26T01:21:54.576Z,6.62
2019-02-26T01:23:02.585Z,6.67
2019-02-26T01:24:10.658Z,6.76
2019-02-26T01:25:20.439Z,6.64
2019-02-26T01:26:27.804Z,6.69
2019-02-26T01:27:34.829Z,6.73
2019-02-26T01:28:44.636Z,6.62
2019-02-26T01:29:51.732Z,6.58
2019-02-26T01:31:00.212Z,6.51
2019-02-26T01:32:09.462Z,6.52
2019-02-26T01:33:15.141Z,6.55
2019-02-26T01:34:23.213Z,6.64
2019-02-26T01:35:33.028Z,6.66
2019-02-26T01:36:40.316Z,6.61
2019-02-26T01:37:49.182Z,6.55
2019-02-26T01:38:55.448Z,6.56
2019-02-26T01:40:07.309Z,6.59
2019-02-26T01:41:13.605Z,6.66
2019-02-26T01:42:22.429Z,6.58
2019-02-26T01:43:27.687Z,6.46
2019-02-26T01:44:37.411Z,6.67
2019-02-26T01:45:44.348Z,6.52
2019-02-26T01:46:53.333Z,6.48
2019-02-26T01:47:59.896Z,6.49
2019-02-26T01:49:07.944Z,6.52
2019-02-26T01:50:16.283Z,6.46
2019-02-26T01:51:25.718Z,6.54
2019-02-26T01:52:32.121Z,6.44
2019-02-26T01:53:41.924Z,6.48
2019-02-26T01:54:48.251Z,6.55
2019-02-26T01:55:56.296Z,6.48
2019-02-26T01:57:04.352Z,6.43
2019-02-26T01:58:15.776Z,6.49
2019-02-26T01:59:20.456Z,6.46
2019-02-26T02:00:28.556Z,6.54
2019-02-26T02:01:39.982Z,6.41
2019-02-26T02:02:44.641Z,6.38
2019-02-26T02:03:53.749Z,6.33
2019-02-26T02:05:02.836Z,6.38
2019-02-26T02:06:11.099Z,6.34
2019-02-26T02:07:16.849Z,6.49
2019-02-26T02:08:25.039Z,6.54
2019-02-26T02:09:32.983Z,6.49
2019-02-26T02:10:41.062Z,6.37
2019-02-26T02:11:49.118Z,6.37
2019-02-26T02:12:59.431Z,6.37
2019-02-26T02:14:05.948Z,6.27
2019-02-26T02:15:15.654Z,6.21
2019-02-26T02:16:22.057Z,6.22
2019-02-26T02:17:30.868Z,6.21
2019-02-26T02:18:37.417Z,6.17
2019-02-26T02:19:45.517Z,6.11
2019-02-26T02:20:53.575Z,6.14
2019-02-26T02:22:01.633Z,6.27
2019-02-26T02:23:09.707Z,6.09
2019-02-26T02:24:19.868Z,6.06
2019-02-26T02:25:28.928Z,5.96
2019-02-26T02:26:34.990Z,6.01
2019-02-26T02:27:41.927Z,5.99
2019-02-26T02:28:50.004Z,5.96
2019-02-26T02:29:58.031Z,6.04
2019-02-26T02:31:06.113Z,6.06
2019-02-26T02:32:14.161Z,6.09
2019-02-26T02:33:24.014Z,6.06
2019-02-26T02:34:32.819Z,6.00
2019-02-26T02:35:38.321Z,6.00
2019-02-26T02:36:46.372Z,5.94
2019-02-26T02:37:56.976Z,6.01
2019-02-26T02:39:02.497Z,6.06
2019-02-26T02:40:10.558Z,6.01
2019-02-26T02:41:18.632Z,5.93
2019-02-26T02:42:26.678Z,6.00
2019-02-26T02:43:34.739Z,6.01
2019-02-26T02:44:44.774Z,5.91
2019-02-26T02:45:53.062Z,6.08
2019-02-26T02:47:00.823Z,5.94
2019-02-26T02:48:08.895Z,5.89
2019-02-26T02:49:15.819Z,5.91
2019-02-26T02:50:23.088Z,6.14
2019-02-26T02:51:31.822Z,6.18
2019-02-26T02:52:39.198Z,6.01
2019-02-26T02:53:47.794Z,6.03
2019-02-26T02:54:55.304Z,6.04
2019-02-26T02:56:04.171Z,6.03
2019-02-26T02:57:11.434Z,6.04
2019-02-26T02:58:21.141Z,6.11
2019-02-26T02:59:28.248Z,6.04
2019-02-26T03:00:35.598Z,6.08
2019-02-26T03:01:45.621Z,6.01
2019-02-26T03:02:52.894Z,6.06
2019-02-26T03:04:01.097Z,6.06
2019-02-26T03:05:07.836Z,6.19
2019-02-26T03:06:15.899Z,6.22
2019-02-26T03:07:26.291Z,6.22
2019-02-26T03:08:32.003Z,6.19
2019-02-26T03:09:40.624Z,6.15
2019-02-26T03:10:48.161Z,6.15
2019-02-26T03:11:56.170Z,6.15
2019-02-26T03:13:04.250Z,6.33
2019-02-26T03:14:13.774Z,6.27
2019-02-26T03:15:21.672Z,6.31
2019-02-26T03:16:28.431Z,6.34
2019-02-26T03:17:36.467Z,6.34
2019-02-26T03:18:44.522Z,6.38
2019-02-26T03:19:52.576Z,6.37
2019-02-26T03:21:02.401Z,6.37
2019-02-26T03:22:09.727Z,6.51
2019-02-26T03:23:19.741Z,6.52
2019-02-26T03:24:26.095Z,6.38
2019-02-26T03:25:32.856Z,6.36
2019-02-26T03:26:40.934Z,6.40
2019-02-26T03:27:48.982Z,6.38
2019-02-26T03:28:57.055Z,6.37
2019-02-26T03:30:05.110Z,6.30
2019-02-26T03:31:13.196Z,6.22
2019-02-26T03:32:21.235Z,6.33
2019-02-26T03:33:29.283Z,6.36
2019-02-26T03:34:37.346Z,6.44
2019-02-26T03:35:45.389Z,6.48
2019-02-26T03:36:53.466Z,6.44
2019-02-26T03:38:03.532Z,6.52
2019-02-26T03:39:09.590Z,6.56
2019-02-26T03:40:17.613Z,6.61
2019-02-26T03:41:26.378Z,6.66
2019-02-26T03:42:35.764Z,6.66
2019-02-26T03:43:41.861Z,6.67
2019-02-26T03:44:49.900Z,6.59
2019-02-26T03:45:57.894Z,6.59
2019-02-26T03:47:05.961Z,6.64
2019-02-26T03:48:19.148Z,6.55
2019-02-26T03:49:26.220Z,6.64
2019-02-26T03:50:30.140Z,6.64
2019-02-26T03:51:39.640Z,6.61
2019-02-26T03:52:46.261Z,6.58
2019-02-26T03:53:54.321Z,6.49
2019-02-26T03:55:03.242Z,6.40
2019-02-26T03:56:12.336Z,6.59
2019-02-26T03:57:19.799Z,6.61
2019-02-26T03:58:26.565Z,6.49
2019-02-26T03:59:34.621Z,6.54
2019-02-26T04:00:43.809Z,6.55
2019-02-26T04:01:50.722Z,6.48
2019-02-26T04:02:58.843Z,6.41
2019-02-26T04:04:07.666Z,6.33
2019-02-26T04:05:14.900Z,6.38
2019-02-26T04:06:22.966Z,6.43
2019-02-26T04:07:33.320Z,6.38
2019-02-26T04:08:39.099Z,6.49
2019-02-26T04:09:49.396Z,6.55
2019-02-26T04:10:55.987Z,6.51
2019-02-26T04:12:03.242Z,6.55
2019-02-26T04:13:11.333Z,6.48
2019-02-26T04:14:20.060Z,6.54
2019-02-26T04:15:29.644Z,6.36
2019-02-26T04:16:37.470Z,6.37
2019-02-26T04:17:43.546Z,6.37
2019-02-26T04:18:52.091Z,6.46
2019-02-26T04:19:59.676Z,6.59
2019-02-26T04:21:09.321Z,6.66
2019-02-26T04:22:17.978Z,6.59
2019-02-26T04:23:23.856Z,6.61
2019-02-26T04:24:34.923Z,6.41
2019-02-26T04:25:39.965Z,6.43
2019-02-26T04:26:48.031Z,6.30
2019-02-26T04:27:56.933Z,6.36
2019-02-26T04:29:04.118Z,6.44
2019-02-26T04:30:13.554Z,6.37
2019-02-26T04:31:20.234Z,6.38
2019-02-26T04:32:28.312Z,6.28
2019-02-26T04:33:38.530Z,6.25
2019-02-26T04:34:44.418Z,6.30
2019-02-26T04:35:52.717Z,6.30
2019-02-26T04:37:01.539Z,6.34
2019-02-26T04:38:08.595Z,6.31
2019-02-26T04:39:18.892Z,6.31
2019-02-26T04:40:28.121Z,6.19
2019-02-26T04:41:32.777Z,6.19
2019-02-26T04:42:42.526Z,6.04
2019-02-26T04:43:48.881Z,6.17
2019-02-26T04:44:58.792Z,6.17
2019-02-26T04:46:05.683Z,6.12
2019-02-26T04:47:13.072Z,6.14
2019-02-26T04:48:22.837Z,6.09
2019-02-26T04:49:30.793Z,6.06
2019-02-26T04:50:38.600Z,6.11
2019-02-26T04:51:47.762Z,6.04
2019-02-26T04:52:55.471Z,6.03
2019-02-26T04:54:02.098Z,5.90
2019-02-26T04:55:09.515Z,5.94
2019-02-26T04:56:17.527Z,5.90
2019-02-26T04:57:25.571Z,6.09
2019-02-26T04:58:34.295Z,6.12
2019-02-26T04:59:43.774Z,6.03
2019-02-26T05:00:49.757Z,6.01
2019-02-26T05:01:57.816Z,6.06
2019-02-26T05:03:07.948Z,6.11
2019-02-26T05:04:13.943Z,6.12
2019-02-26T05:05:22.962Z,6.37
2019-02-26T05:06:30.048Z,6.31
2019-02-26T05:07:39.078Z,6.14
2019-02-26T05:08:46.167Z,6.17
2019-02-26T05:09:55.967Z,6.37
2019-02-26T05:11:02.290Z,6.33
2019-02-26T05:12:10.335Z,6.19
2019-02-26T05:13:18.397Z,6.15
2019-02-26T05:14:26.446Z,6.01
2019-02-26T05:15:34.496Z,6.01
2019-02-26T05:16:42.559Z,5.97
2019-02-26T05:17:50.622Z,5.91
2019-02-26T05:18:58.696Z,5.99
2019-02-26T05:20:09.466Z,5.96
2019-02-26T05:21:14.799Z,6.08
2019-02-26T05:22:24.959Z,6.09
2019-02-26T05:23:33.038Z,6.17
2019-02-26T05:24:42.177Z,6.14
2019-02-26T05:25:47.030Z,6.17
2019-02-26T05:26:55.131Z,6.15
2019-02-26T05:28:04.373Z,6.04
2019-02-26T05:29:11.213Z,6.12
2019-02-26T05:30:22.181Z,6.09
2019-02-26T05:31:29.477Z,5.93
2019-02-26T05:32:35.617Z,5.90
2019-02-26T05:33:43.443Z,6.06
2019-02-26T05:34:51.508Z,6.12
2019-02-26T05:35:59.543Z,6.09
2019-02-26T05:37:08.002Z,5.97
2019-02-26T05:38:16.273Z,5.93
2019-02-26T05:39:25.729Z,5.83
2019-02-26T05:40:31.806Z,5.96
2019-02-26T05:41:40.644Z,5.83
2019-02-26T05:42:48.177Z,5.91
2019-02-26T05:43:58.247Z,5.81
2019-02-26T05:45:06.596Z,5.68
2019-02-26T05:46:12.076Z,5.72
2019-02-26T05:47:21.396Z,5.63
2019-02-26T05:48:28.227Z,5.51
2019-02-26T05:49:38.354Z,5.40
2019-02-26T05:50:44.650Z,5.45
2019-02-26T05:51:53.430Z,5.49
2019-02-26T05:53:01.673Z,5.24
2019-02-26T05:54:11.522Z,5.36
2019-02-26T05:55:17.472Z,5.39
2019-02-26T05:56:24.646Z,5.40
2019-02-26T05:57:32.843Z,5.35
2019-02-26T05:58:41.762Z,5.43
2019-02-26T05:59:48.779Z,5.39
2019-02-26T06:00:56.840Z,5.42
2019-02-26T06:02:04.895Z,5.43
2019-02-26T06:03:15.499Z,5.48
2019-02-26T06:04:20.996Z,5.43
2019-02-26T06:05:29.064Z,5.53
2019-02-26T06:06:37.128Z,5.42
2019-02-26T06:07:45.178Z,5.39
2019-02-26T06:08:55.086Z,5.43
2019-02-26T06:10:01.774Z,5.36
2019-02-26T06:11:09.351Z,5.24
2019-02-26T06:12:17.383Z,5.18
2019-02-26T06:13:25.457Z,5.20
2019-02-26T06:14:35.462Z,5.38
2019-02-26T06:15:41.574Z,5.36
2019-02-26T06:16:51.141Z,5.31
2019-02-26T06:17:57.735Z,5.40
2019-02-26T06:19:06.479Z,5.31
2019-02-26T06:20:13.852Z,5.33
2019-02-26T06:21:23.495Z,5.25
2019-02-26T06:22:31.674Z,5.33
2019-02-26T06:23:39.301Z,5.39
2019-02-26T06:24:46.050Z,5.35
2019-02-26T06:25:55.881Z,5.43
2019-02-26T06:27:02.175Z,5.67
2019-02-26T06:28:12.574Z,5.58
2019-02-26T06:29:20.603Z,5.64
2019-02-26T06:30:26.342Z,5.81
2019-02-26T06:31:34.407Z,5.78
2019-02-26T06:32:44.415Z,5.99
2019-02-26T06:33:50.755Z,5.90
2019-02-26T06:34:58.568Z,6.08
2019-02-26T06:36:06.628Z,6.06
2019-02-26T06:37:16.368Z,6.06
2019-02-26T06:38:23.435Z,6.17
2019-02-26T06:39:32.058Z,6.12
2019-02-26T06:40:39.267Z,6.15
2019-02-26T06:41:48.612Z,6.09
2019-02-26T06:42:54.986Z,6.08
2019-02-26T06:44:03.079Z,6.09
2019-02-26T06:45:13.230Z,6.14
2019-02-26T06:46:19.138Z,6.14
2019-02-26T06:47:28.440Z,6.17
2019-02-26T06:48:35.269Z,6.27
2019-02-26T06:49:45.220Z,6.30
2019-02-26T06:50:51.381Z,6.31
2019-02-26T06:51:59.439Z,6.21
2019-02-26T06:53:09.060Z,6.34
2019-02-26T06:54:17.436Z,6.56
2019-02-26T06:55:23.624Z,6.52
2019-02-26T06:56:34.413Z,6.62
2019-02-26T06:57:41.301Z,6.56
2019-02-26T06:58:47.781Z,6.66
2019-02-26T06:59:58.346Z,6.66
2019-02-26T07:01:03.920Z,6.70
2019-02-26T07:02:11.975Z,6.77
2019-02-26T07:03:24.133Z,6.97
2019-02-26T07:04:30.041Z,6.99
2019-02-26T07:05:36.144Z,7.13
2019-02-26T07:06:44.218Z,7.15
2019-02-26T07:07:52.586Z,7.20
2019-02-26T07:09:00.311Z,7.28
2019-02-26T07:10:08.374Z,7.35
2019-02-26T07:11:16.427Z,7.39
2019-02-26T07:12:26.301Z,7.42
2019-02-26T07:13:33.847Z,7.37
2019-02-26T07:14:40.630Z,7.43
2019-02-26T07:15:48.656Z,7.48
2019-02-26T07:16:59.075Z,7.55
2019-02-26T07:18:07.154Z,7.49
2019-02-26T07:19:14.182Z,7.69
2019-02-26T07:20:20.897Z,7.58
2019-02-26T07:21:28.970Z,7.61
2019-02-26T07:22:37.032Z,7.71
2019-02-26T07:23:45.090Z,7.72
2019-02-26T07:24:53.940Z,7.79
2019-02-26T07:26:01.254Z,7.75
2019-02-26T07:27:11.490Z,7.87
2019-02-26T07:28:18.155Z,7.92
2019-02-26T07:29:25.387Z,8.05
2019-02-26T07:30:35.199Z,8.15
2019-02-26T07:31:41.525Z,8.11
2019-02-26T07:32:49.591Z,8.15
2019-02-26T07:33:58.123Z,8.30
2019-02-26T07:35:06.745Z,8.34
2019-02-26T07:36:13.755Z,8.45
2019-02-26T07:37:21.830Z,8.44
2019-02-26T07:38:29.886Z,8.52
2019-02-26T07:39:39.592Z,8.63
2019-02-26T07:40:46.018Z,8.74
2019-02-26T07:41:54.356Z,8.86
2019-02-26T07:43:04.839Z,8.77
2019-02-26T07:44:15.305Z,8.84
2019-02-26T07:45:20.300Z,8.89
2019-02-26T07:46:26.291Z,9.01
2019-02-26T07:47:36.196Z,8.99
2019-02-26T07:48:42.431Z,8.98
2019-02-26T07:49:50.487Z,9.13
2019-02-26T07:50:58.528Z,9.15
2019-02-26T07:52:08.589Z,9.21
2019-02-26T07:53:17.035Z,9.24
2019-02-26T07:54:22.742Z,9.32
2019-02-26T07:55:32.685Z,9.32
2019-02-26T07:56:38.863Z,9.46
2019-02-26T07:57:48.110Z,9.42
2019-02-26T07:58:56.902Z,9.46
2019-02-26T08:00:03.053Z,9.35
2019-02-26T08:01:11.103Z,9.35
2019-02-26T08:02:19.159Z,9.32
2019-02-26T08:03:29.275Z,9.35
2019-02-26T08:04:36.335Z,9.35
2019-02-26T08:05:43.350Z,9.35
2019-02-26T08:06:52.280Z,9.31
2019-02-26T08:07:59.456Z,9.48
2019-02-26T08:09:10.925Z,9.48
2019-02-26T08:10:16.884Z,9.48
2019-02-26T08:11:23.673Z,9.60
2019-02-26T08:12:33.344Z,9.60
2019-02-26T08:13:39.790Z,9.61
2019-02-26T08:14:49.659Z,9.71
2019-02-26T08:15:57.643Z,9.69
2019-02-26T08:17:05.770Z,9.58
2019-02-26T08:18:12.021Z,9.57
2019-02-26T08:19:20.085Z,9.72
2019-02-26T08:20:29.899Z,9.65
2019-02-26T08:21:36.245Z,9.61
2019-02-26T08:22:44.281Z,9.64
2019-02-26T08:23:52.751Z,9.72
2019-02-26T08:25:00.425Z,9.79
2019-02-26T08:26:08.463Z,9.81
2019-02-26T08:27:16.551Z,9.76
2019-02-26T08:28:24.908Z,9.75
2019-02-26T08:29:34.133Z,9.79
2019-02-26T08:30:42.634Z,9.81
2019-02-26T08:31:49.475Z,9.84
2019-02-26T08:32:58.888Z,9.89
2019-02-26T08:34:04.912Z,9.84
2019-02-26T08:35:12.971Z,9.94
2019-02-26T08:36:21.042Z,10.02
2019-02-26T08:37:29.115Z,9.91
2019-02-26T08:38:37.182Z,9.86
2019-02-26T08:39:45.227Z,9.94
2019-02-26T08:40:53.273Z,10.01
2019-02-26T08:42:01.332Z,9.94
2019-02-26T08:43:09.394Z,9.97
2019-02-26T08:44:17.470Z,9.99
2019-02-26T08:45:25.727Z,10.02
2019-02-26T08:46:33.589Z,9.96
2019-02-26T08:47:41.643Z,10.01
2019-02-26T08:48:50.740Z,10.07
2019-02-26T08:49:58.855Z,10.20
2019-02-26T08:51:08.283Z,10.18
2019-02-26T08:52:16.707Z,10.17
2019-02-26T08:53:23.825Z,10.15
2019-02-26T08:54:31.159Z,10.29
2019-02-26T08:55:38.071Z,10.38
2019-02-26T08:56:46.153Z,10.44
2019-02-26T08:57:55.953Z,10.44
2019-02-26T08:59:03.597Z,10.34
2019-02-26T09:00:10.318Z,10.40
2019-02-26T09:01:18.381Z,10.53
2019-02-26T09:02:26.450Z,10.51
2019-02-26T09:03:40.522Z,10.59
2019-02-26T09:04:43.071Z,10.71
2019-02-26T09:05:51.577Z,10.76
2019-02-26T09:07:00.066Z,10.74
2019-02-26T09:08:08.343Z,10.85
2019-02-26T09:09:14.823Z,11.00
2019-02-26T09:10:23.306Z,11.06
2019-02-26T09:11:31.747Z,11.10
2019-02-26T09:12:40.890Z,11.02
2019-02-26T09:13:47.058Z,10.86
2019-02-26T09:14:55.130Z,10.92
2019-02-26T09:16:05.073Z,11.07
2019-02-26T09:17:11.267Z,11.24
2019-02-26T09:18:20.401Z,11.27
2019-02-26T09:19:28.484Z,11.27
2019-02-26T09:20:35.421Z,11.35
2019-02-26T09:21:45.158Z,11.24
2019-02-26T09:22:54.251Z,11.25
2019-02-26T09:24:01.886Z,11.25
2019-02-26T09:25:07.673Z,11.33
2019-02-26T09:26:15.752Z,11.25
2019-02-26T09:27:24.717Z,11.32
2019-02-26T09:28:32.069Z,11.29
2019-02-26T09:29:41.935Z,11.33
2019-02-26T09:30:48.002Z,11.35
2019-02-26T09:31:56.070Z,11.29
2019-02-26T09:33:05.827Z,11.49
2019-02-26T09:34:12.177Z,11.52
2019-02-26T09:35:25.171Z,11.54
2019-02-26T09:36:29.371Z,11.52
2019-02-26T09:37:36.362Z,11.47
2019-02-26T09:38:46.332Z,11.64
2019-02-26T09:39:54.244Z,11.60
2019-02-26T09:41:00.566Z,11.47
2019-02-26T09:42:09.112Z,11.57
2019-02-26T09:43:17.250Z,11.65
2019-02-26T09:44:26.165Z,11.72
2019-02-26T09:45:32.831Z,11.82
2019-02-26T09:46:43.330Z,11.76
2019-02-26T09:47:49.694Z,11.83
2019-02-26T09:48:57.815Z,11.83
2019-02-26T09:50:05.061Z,11.82
2019-02-26T09:51:14.594Z,11.98
2019-02-26T09:52:23.754Z,12.09
2019-02-26T09:53:29.250Z,12.13
2019-02-26T09:54:38.424Z,12.21
2019-02-26T09:55:45.369Z,12.28
2019-02-26T09:56:53.428Z,12.31
2019-02-26T09:58:02.530Z,12.39
2019-02-26T09:59:10.272Z,12.46
2019-02-26T10:00:19.377Z,12.57
2019-02-26T10:01:25.692Z,12.56
2019-02-26T10:02:33.749Z,12.49
2019-02-26T10:03:41.821Z,12.45
2019-02-26T10:04:51.785Z,12.52
2019-02-26T10:05:58.027Z,12.59
2019-02-26T10:07:07.312Z,12.70
2019-02-26T10:08:14.082Z,12.85
2019-02-26T10:09:22.131Z,13.01
2019-02-26T10:10:31.006Z,13.08
2019-02-26T10:11:39.320Z,12.95
2019-02-26T10:12:46.321Z,13.15
2019-02-26T10:13:54.386Z,12.95
2019-02-26T10:15:03.261Z,12.92
2019-02-26T10:16:10.517Z,12.97
2019-02-26T10:17:19.517Z,12.93
2019-02-26T10:18:27.896Z,13.11
2019-02-26T10:19:35.634Z,13.26
2019-02-26T10:20:45.046Z,13.33
2019-02-26T10:21:50.817Z,13.45
2019-02-26T10:23:01.153Z,13.45
2019-02-26T10:24:06.954Z,13.48
2019-02-26T10:25:15.356Z,13.66
2019-02-26T10:26:26.087Z,13.66
2019-02-26T10:27:31.796Z,13.64
2019-02-26T10:28:40.242Z,13.64
2019-02-26T10:29:47.951Z,13.52
2019-02-26T10:30:56.873Z,13.54
2019-02-26T10:32:03.406Z,13.59
2019-02-26T10:33:11.461Z,13.67
2019-02-26T10:34:20.821Z,13.55
2019-02-26T10:35:33.073Z,13.54
2019-02-26T10:36:40.032Z,13.39
2019-02-26T10:37:43.758Z,13.36
2019-02-26T10:38:53.098Z,13.20
2019-02-26T10:39:59.834Z,13.12
2019-02-26T10:41:07.882Z,13.11
2019-02-26T10:42:17.953Z,13.25
2019-02-26T10:43:24.038Z,13.28
2019-02-26T10:44:32.132Z,13.46
2019-02-26T10:45:42.289Z,13.52
2019-02-26T10:46:48.254Z,13.66
2019-02-26T10:47:58.301Z,13.71
2019-02-26T10:49:04.383Z,13.66
2019-02-26T10:50:13.029Z,13.67
2019-02-26T10:51:25.773Z,13.88
2019-02-26T10:52:28.748Z,14.04
2019-02-26T10:53:36.664Z,14.33
2019-02-26T10:54:46.534Z,14.45
2019-02-26T10:55:52.749Z,14.50
2019-02-26T10:57:03.509Z,14.37
2019-02-26T10:58:11.134Z,14.55
2019-02-26T10:59:19.474Z,14.55
2019-02-26T11:00:25.757Z,14.36
2019-02-26T11:01:33.732Z,14.32
2019-02-26T11:02:42.813Z,14.37
2019-02-26T11:03:51.645Z,14.40
2019-02-26T11:04:57.259Z,14.60
2019-02-26T11:06:07.200Z,14.69
2019-02-26T11:07:14.218Z,14.43
2019-02-26T11:08:24.431Z,14.37
2019-02-26T11:09:31.809Z,14.27
2019-02-26T11:10:39.878Z,14.40
2019-02-26T11:11:45.644Z,14.52
2019-02-26T11:12:55.763Z,14.55
2019-02-26T11:14:01.789Z,14.65
2019-02-26T11:15:09.844Z,14.33
2019-02-26T11:16:24.820Z,14.40
2019-02-26T11:17:26.309Z,14.55
2019-02-26T11:18:34.696Z,14.55
2019-02-26T11:19:42.127Z,14.51
2019-02-26T11:20:51.096Z,14.62
2019-02-26T11:22:00.750Z,14.54
2019-02-26T11:23:08.387Z,14.80
2019-02-26T11:24:14.354Z,14.83
2019-02-26T11:25:24.158Z,14.91
2019-02-26T11:26:32.342Z,14.78
2019-02-26T11:27:40.720Z,14.70
2019-02-26T11:28:47.900Z,14.75
2019-02-26T11:29:56.595Z,14.84
2019-02-26T11:31:02.740Z,14.81
2019-02-26T11:32:12.473Z,14.86
2019-02-26T11:33:18.874Z,14.91
2019-02-26T11:34:28.487Z,15.06
2019-02-26T11:35:35.015Z,14.99
2019-02-26T11:36:43.077Z,14.94
2019-02-26T11:37:52.205Z,14.91
2019-02-26T11:39:01.739Z,14.81
2019-02-26T11:40:07.252Z,15.01
2019-02-26T11:41:15.359Z,15.10
2019-02-26T11:42:24.095Z,14.96
2019-02-26T11:43:31.480Z,14.99
2019-02-26T11:44:39.754Z,14.92
2019-02-26T11:45:47.620Z,15.10
2019-02-26T11:46:56.433Z,15.19
2019-02-26T11:48:05.640Z,15.27
2019-02-26T11:49:12.725Z,15.50
2019-02-26T11:50:19.853Z,15.51
2019-02-26T11:51:36.779Z,15.49
2019-02-26T11:52:36.384Z,15.47
2019-02-26T11:53:45.725Z,15.01
2019-02-26T11:54:52.139Z,14.99
2019-02-26T11:56:02.014Z,15.16
2019-02-26T11:57:10.276Z,15.31
2019-02-26T11:58:18.559Z,15.16
2019-02-26T11:59:24.374Z,14.95
2019-02-26T12:00:36.139Z,14.98
2019-02-26T12:01:42.036Z,14.98
2019-02-26T12:02:48.562Z,14.92
2019-02-26T12:04:02.504Z,14.88
2019-02-26T12:05:05.534Z,14.95
2019-02-26T12:06:12.781Z,14.96
2019-02-26T12:07:22.287Z,15.16
2019-02-26T12:08:28.921Z,15.03
2019-02-26T12:09:38.432Z,15.02
2019-02-26T12:10:45.032Z,15.02
2019-02-26T12:11:53.114Z,15.02
2019-02-26T12:13:02.204Z,15.01
2019-02-26T12:14:10.829Z,15.16
2019-02-26T12:15:17.323Z,15.20
2019-02-26T12:16:28.380Z,15.20
2019-02-26T12:17:33.429Z,15.07
2019-02-26T12:18:41.988Z,15.19
2019-02-26T12:19:51.016Z,15.31
2019-02-26T12:20:57.609Z,15.38
2019-02-26T12:22:05.976Z,15.44
2019-02-26T12:23:16.057Z,15.49
2019-02-26T12:24:23.790Z,15.60
2019-02-26T12:25:29.929Z,15.76
2019-02-26T12:26:37.969Z,15.87
2019-02-26T12:27:47.901Z,15.89
2019-02-26T12:28:54.715Z,15.78
2019-02-26T12:30:02.159Z,15.93
2019-02-26T12:31:12.696Z,15.93
2019-02-26T12:32:19.881Z,15.92
2019-02-26T12:33:26.366Z,16.15
2019-02-26T12:34:35.120Z,15.93
2019-02-26T12:35:43.561Z,15.90
2019-02-26T12:36:51.114Z,15.96
2019-02-26T12:37:59.324Z,16.02
2019-02-26T12:39:06.665Z,16.21
2019-02-26T12:40:15.874Z,16.09
2019-02-26T12:41:22.808Z,16.04
2019-02-26T12:42:30.971Z,15.82
2019-02-26T12:43:41.221Z,15.83
2019-02-26T12:44:47.015Z,15.90
2019-02-26T12:45:55.911Z,16.00
2019-02-26T12:47:03.148Z,15.92
2019-02-26T12:48:14.148Z,15.87
2019-02-26T12:49:22.184Z,15.92
2019-02-26T12:50:29.714Z,15.94
2019-02-26T12:51:35.579Z,15.97
2019-02-26T12:52:44.667Z,15.94
2019-02-26T12:53:51.517Z,15.87
2019-02-26T12:55:00.598Z,15.92
2019-02-26T12:56:08.786Z,15.90
2019-02-26T12:57:18.395Z,16.05
2019-02-26T12:58:26.700Z,16.17
2019-02-26T12:59:31.842Z,16.20
2019-02-26T13:00:41.877Z,16.24
2019-02-26T13:01:49.174Z,16.24
2019-02-26T13:02:56.061Z,16.23
2019-02-26T13:04:05.984Z,16.20
2019-02-26T13:05:13.299Z,16.24
2019-02-26T13:06:22.589Z,16.11
2019-02-26T13:07:28.329Z,16.04
2019-02-26T13:08:39.353Z,15.93
2019-02-26T13:09:47.764Z,16.07
2019-02-26T13:10:56.014Z,16.12
2019-02-26T13:12:02.605Z,16.08
2019-02-26T13:13:08.658Z,16.20
2019-02-26T13:14:16.720Z,16.20
2019-02-26T13:15:24.776Z,16.25
2019-02-26T13:16:32.848Z,16.43
2019-02-26T13:17:40.926Z,16.48
2019-02-26T13:18:51.364Z,16.58
2019-02-26T13:19:58.760Z,16.61
2019-02-26T13:21:09.138Z,16.50
2019-02-26T13:22:17.361Z,16.39
2019-02-26T13:23:21.794Z,16.30
2019-02-26T13:24:29.321Z,16.43
2019-02-26T13:25:37.370Z,16.43
2019-02-26T13:26:48.708Z,16.60
2019-02-26T13:27:53.511Z,16.61
2019-02-26T13:29:01.570Z,16.71
2019-02-26T13:30:09.627Z,16.57
2019-02-26T13:31:18.902Z,16.66
2019-02-26T13:32:31.484Z,16.57
2019-02-26T13:33:36.972Z,16.76
2019-02-26T13:34:41.885Z,16.79
2019-02-26T13:35:52.082Z,16.83
2019-02-26T13:36:58.048Z,16.85
2019-02-26T13:38:06.095Z,16.88
2019-02-26T13:39:21.789Z,16.89
2019-02-26T13:40:22.229Z,17.00
2019-02-26T13:41:30.511Z,16.86
2019-02-26T13:42:38.355Z,16.98
2019-02-26T13:43:46.431Z,17.06
2019-02-26T13:44:54.488Z,17.00
2019-02-26T13:46:02.550Z,17.08
2019-02-26T13:47:10.619Z,17.04
2019-02-26T13:48:18.706Z,17.03
2019-02-26T13:49:26.746Z,17.03
2019-02-26T13:50:34.855Z,17.00
2019-02-26T13:51:42.936Z,17.14
2019-02-26T13:52:50.971Z,17.14
2019-02-26T13:53:59.027Z,17.12
2019-02-26T13:55:07.077Z,17.16
2019-02-26T13:56:15.151Z,17.16
2019-02-26T13:57:23.229Z,17.14
2019-02-26T13:58:31.298Z,17.28
2019-02-26T13:59:39.354Z,17.21
2019-02-26T14:00:47.417Z,17.04
2019-02-26T14:01:55.477Z,17.01
2019-02-26T14:03:04.189Z,17.07
2019-02-26T14:04:11.635Z,17.19
2019-02-26T14:05:19.696Z,17.25
2019-02-26T14:06:27.741Z,17.28
2019-02-26T14:07:35.811Z,17.28
2019-02-26T14:08:43.882Z,17.22
2019-02-26T14:09:51.962Z,17.14
2019-02-26T14:11:00.037Z,17.30
2019-02-26T14:12:08.113Z,17.46
2019-02-26T14:13:16.174Z,17.38
2019-02-26T14:14:24.238Z,17.41
2019-02-26T14:15:32.286Z,17.15
2019-02-26T14:16:40.361Z,17.01
2019-02-26T14:17:48.416Z,17.12
2019-02-26T14:18:56.484Z,17.16
2019-02-26T14:20:04.570Z,17.12
2019-02-26T14:21:12.615Z,16.97
2019-02-26T14:22:20.673Z,17.03
2019-02-26T14:23:34.727Z,17.11
2019-02-26T14:24:36.813Z,17.07
2019-02-26T14:25:44.877Z,17.11
2019-02-26T14:26:52.963Z,17.06
2019-02-26T14:28:01.011Z,17.01
2019-02-26T14:29:09.086Z,17.01
2019-02-26T14:30:17.151Z,17.01
2019-02-26T14:31:25.222Z,16.93
2019-02-26T14:32:33.297Z,16.98
2019-02-26T14:33:41.339Z,17.03
2019-02-26T14:34:49.412Z,17.03
2019-02-26T14:35:57.478Z,16.93
2019-02-26T14:37:05.570Z,16.97
2019-02-26T14:38:13.639Z,16.98
2019-02-26T14:39:21.681Z,16.88
2019-02-26T14:40:29.775Z,16.91
2019-02-26T14:41:37.808Z,16.79
2019-02-26T14:42:45.868Z,16.78
2019-02-26T14:43:53.950Z,16.79
2019-02-26T14:45:02.029Z,16.75
2019-02-26T14:46:10.086Z,16.75
2019-02-26T14:47:18.150Z,16.67
2019-02-26T14:48:26.217Z,16.61
2019-02-26T14:49:34.275Z,16.53
2019-02-26T14:50:42.344Z,16.58
2019-02-26T14:51:50.415Z,16.46
2019-02-26T14:52:58.474Z,16.46